Weather

Webcam

Metar / TAF

Zurich

  • LSZH 030520Z 00000KT CAVOK 00/M03 Q1015 NOSIG

  • TAF AMD LSZH 030438Z 0304/0409 35003KT CAVOK TX15/0315Z TNM00/0305Z TNM01/0405Z BECMG 0309/0312 9999 FEW060 BECMG 0400/0403 CAVOK

Dübendorf

  • LSMD 030520Z 00000KT CAVOK 01/M03 Q1015 RMK BLU

  • TAF LSMD 021625Z 0217/0323 31008KT 9999 FEW060 TEMPO 0217/0221 CAVOK

St. Gallen

  • LSZR 030520Z AUTO VRB01KT 9999 OVC080 04/M01 Q1015

  • TAF AMD LSZR 222054Z 2220/2224 CNL

Bern

  • LSZB 030520Z AUTO 14002KT 9999 NCD M02/M03 Q1014

  • TAF AMD TAF AMD LSZB 222054Z 2220/2224 CNL

Locarno

  • LSZL 030520Z 00000KT 8000 NSC M00/M00 Q1013 RMK BLU

  • TAF AMD TAF AMD LSZL 150713Z 1509/1521 VRB03KT 9999 SCT050

Samedan

  • LSZS 030520Z AUTO 19001KT 9999 BKN050 M05/M07 Q1011

  • TAF AMD LSZS 222054Z 2220/2224 CNL

Geneve

  • LSGG 030520Z 26002KT CAVOK 00/M03 Q1014 NOSIG

  • TAF TAF LSGG 030225Z 0303/0409 VRB03KT CAVOK TX14/0315Z TN01/0305Z TN00/0405Z BECMG 0309/0311 03008KT FEW060 PROB30 TEMPO 0315/0318 32010KT BECMG 0318/0320 VRB03KT CAVOK

Weather-Charts



Wind at FL50: 06:00z, 09:00z, 12:00z, 15:00z and 18:00z